Time;durP1;ratioP1;P1;durP2;ratioP2;P2;SDS_P1;SDS_P2;PMS_P1;PMS_P2;Temp;Humidity;BMP_temperature;BMP_pressure;BME280_temperature;BME280_humidity;BME280_pressure;Samples;Min_cycle;Max_cycle;Signal;HPM_P1;HPM_P2
2021/05/04 00:01:46;;;;;;;2.28;1.30;;;20.50;40.50;;;;;;5035493;28;20523;-55
2021/05/04 00:04:12;;;;;;;1.30;1.10;;;20.40;40.40;;;;;;5035936;28;20025;-55
2021/05/04 00:06:37;;;;;;;3.55;1.48;;;20.40;40.30;;;;;;5035443;28;20056;-52
2021/05/04 00:09:05;;;;;;;1.58;1.30;;;20.50;40.30;;;;;;5035822;28;20038;-54
2021/05/04 00:11:30;;;;;;;1.98;1.30;;;20.40;40.20;;;;;;5035708;28;20029;-54
2021/05/04 00:13:56;;;;;;;1.55;1.27;;;20.40;40.20;;;;;;5035450;28;20334;-54
2021/05/04 00:16:21;;;;;;;1.45;1.13;;;20.50;40.20;;;;;;5035880;28;20021;-50
2021/05/04 00:18:47;;;;;;;1.75;1.17;;;20.50;40.00;;;;;;5035177;28;20101;-53
2021/05/04 00:21:13;;;;;;;2.60;1.02;;;20.50;40.00;;;;;;5035684;28;20164;-53
2021/05/04 00:23:38;;;;;;;1.70;1.27;;;20.40;39.90;;;;;;5035409;28;20036;-52
2021/05/04 00:26:04;;;;;;;1.42;1.00;;;20.50;39.90;;;;;;5035620;28;20345;-54
2021/05/04 00:28:29;;;;;;;2.58;1.05;;;20.40;39.90;;;;;;5035382;28;20025;-54
2021/05/04 00:30:55;;;;;;;1.92;1.00;;;20.50;39.80;;;;;;5035582;28;20495;-55
2021/05/04 00:33:21;;;;;;;1.67;0.70;;;20.50;39.80;;;;;;5035543;28;20109;-54
2021/05/04 00:35:47;;;;;;;0.90;0.60;;;20.40;39.70;;;;;;5034828;28;20501;-50
2021/05/04 00:38:13;;;;;;;4.40;1.00;;;20.40;39.70;;;;;;5035435;28;20526;-54
2021/05/04 00:40:38;;;;;;;1.13;1.02;;;20.40;39.60;;;;;;5034780;28;20027;-51
2021/05/04 00:43:04;;;;;;;0.82;0.82;;;20.40;39.50;;;;;;5034939;28;20037;-51
2021/05/04 00:45:29;;;;;;;1.25;0.85;;;20.40;39.50;;;;;;5035089;28;20032;-52
2021/05/04 00:47:55;;;;;;;1.88;0.80;;;20.40;39.50;;;;;;5035334;28;20034;-54
2021/05/04 00:50:21;;;;;;;1.45;0.90;;;20.40;39.40;;;;;;5035113;28;20440;-55
2021/05/04 00:52:46;;;;;;;2.20;0.77;;;20.40;39.40;;;;;;5034969;28;20094;-50
2021/05/04 00:55:13;;;;;;;0.80;0.68;;;20.40;39.40;;;;;;5034438;28;20021;-51
2021/05/04 00:57:40;;;;;;;1.17;0.73;;;20.40;39.50;;;;;;5035329;28;20056;-54
2021/05/04 01:00:07;;;;;;;1.20;1.00;;;20.40;39.50;;;;;;5035294;28;20021;-55
2021/05/04 01:02:33;;;;;;;4.60;1.00;;;20.40;39.60;;;;;;5034921;28;20040;-54
2021/05/04 01:05:00;;;;;;;1.17;0.73;;;20.40;39.60;;;;;;5034817;28;20033;-49
2021/05/04 01:07:26;;;;;;;2.72;0.70;;;20.40;39.70;;;;;;5034715;28;20053;-56
2021/05/04 01:09:55;;;;;;;2.30;0.75;;;20.30;39.70;;;;;;5034739;28;20045;-55
2021/05/04 01:12:21;;;;;;;1.42;0.90;;;20.40;39.80;;;;;;5034874;28;20030;-51
2021/05/04 01:14:48;;;;;;;1.90;0.80;;;20.30;39.80;;;;;;5034753;28;20024;-56
2021/05/04 01:17:13;;;;;;;1.48;0.60;;;20.30;39.90;;;;;;5034680;28;20040;-55
2021/05/04 01:19:39;;;;;;;1.25;0.95;;;20.30;39.90;;;;;;5034665;28;20108;-52
2021/05/04 01:22:05;;;;;;;1.38;0.85;;;20.30;40.00;;;;;;5034329;28;20113;-55
2021/05/04 01:24:31;;;;;;;2.28;0.52;;;20.30;40.10;;;;;;5034851;28;20079;-54
2021/05/04 01:26:58;;;;;;;3.25;1.00;;;20.30;40.10;;;;;;5034713;28;20345;-51
2021/05/04 01:29:25;;;;;;;0.50;0.50;;;20.30;40.20;;;;;;5034644;28;20087;-55
2021/05/04 01:31:51;;;;;;;3.75;0.88;;;20.30;40.30;;;;;;5038547;28;20060;-51
2021/05/04 01:34:17;;;;;;;4.88;0.80;;;20.30;40.30;;;;;;5038510;28;20077;-54
2021/05/04 01:36:42;;;;;;;0.70;0.70;;;20.20;40.30;;;;;;5038153;28;20080;-54
2021/05/04 01:39:09;;;;;;;1.13;0.70;;;20.30;40.40;;;;;;5038993;28;20037;-51
2021/05/04 01:41:36;;;;;;;3.33;0.70;;;20.30;40.50;;;;;;5038413;28;20029;-52
2021/05/04 01:44:02;;;;;;;2.40;0.80;;;20.30;40.60;;;;;;5038446;28;20022;-52
2021/05/04 01:46:32;;;;;;;1.88;0.60;;;20.20;40.60;;;;;;5038582;28;20425;-52
2021/05/04 01:49:03;;;;;;;1.15;0.60;;;20.30;40.70;;;;;;5038158;28;20090;-56
2021/05/04 01:51:29;;;;;;;2.60;0.80;;;20.30;40.80;;;;;;5037852;28;20017;-52
2021/05/04 01:53:56;;;;;;;0.82;0.68;;;20.20;40.80;;;;;;5037925;28;20492;-52
2021/05/04 01:56:22;;;;;;;1.27;0.77;;;20.20;40.80;;;;;;5038505;28;20025;-53
2021/05/04 01:58:48;;;;;;;1.25;0.95;;;20.20;40.90;;;;;;5038200;28;20029;-52
2021/05/04 02:01:14;;;;;;;0.88;0.70;;;20.20;41.00;;;;;;5038141;28;20029;-51
2021/05/04 02:03:40;;;;;;;0.95;0.63;;;20.20;41.10;;;;;;5038107;28;20352;-52
2021/05/04 02:06:05;;;;;;;0.95;0.70;;;20.20;41.10;;;;;;5038066;28;20022;-58
2021/05/04 02:08:31;;;;;;;1.55;0.93;;;20.20;41.10;;;;;;5038035;28;20029;-53
2021/05/04 02:10:57;;;;;;;1.92;1.10;;;20.20;41.20;;;;;;5037942;28;20476;-57
2021/05/04 02:13:23;;;;;;;0.77;0.60;;;20.20;41.20;;;;;;5037958;28;20116;-57
2021/05/04 02:15:50;;;;;;;1.33;0.60;;;20.20;41.30;;;;;;5038151;28;20348;-54
2021/05/04 02:18:16;;;;;;;1.80;0.80;;;20.20;41.40;;;;;;5037784;28;20049;-52
2021/05/04 02:20:42;;;;;;;1.48;0.50;;;20.20;41.40;;;;;;5037592;28;20068;-49
2021/05/04 02:23:07;;;;;;;1.85;0.80;;;20.10;41.50;;;;;;5037602;28;20124;-56
2021/05/04 02:25:33;;;;;;;2.00;0.77;;;20.10;41.50;;;;;;5037773;28;20030;-51
2021/05/04 02:27:58;;;;;;;0.93;0.63;;;20.10;41.60;;;;;;5037917;28;20028;-54
2021/05/04 02:30:24;;;;;;;4.85;0.90;;;20.10;41.60;;;;;;5037713;28;20096;-55
2021/05/04 02:32:50;;;;;;;0.63;0.40;;;20.10;41.60;;;;;;5037630;28;20074;-55
2021/05/04 02:35:15;;;;;;;0.80;0.60;;;20.10;41.70;;;;;;5037524;28;20060;-54
2021/05/04 02:37:41;;;;;;;2.38;0.60;;;20.10;41.70;;;;;;5037456;28;20026;-50
2021/05/04 02:40:07;;;;;;;0.73;0.60;;;20.10;41.80;;;;;;5037498;28;20026;-56
2021/05/04 02:42:32;;;;;;;0.68;0.50;;;20.10;41.80;;;;;;5036667;28;20052;-53
2021/05/04 02:44:58;;;;;;;0.85;0.60;;;20.10;41.90;;;;;;5037355;28;20022;-52
2021/05/04 02:47:24;;;;;;;0.98;0.77;;;20.10;41.90;;;;;;5037483;28;20029;-52
2021/05/04 02:49:49;;;;;;;0.75;0.52;;;20.10;42.00;;;;;;5037426;28;20471;-55
2021/05/04 02:52:15;;;;;;;1.58;0.60;;;20.10;42.00;;;;;;5037208;28;20091;-55
2021/05/04 02:54:41;;;;;;;0.95;0.43;;;20.00;42.00;;;;;;5036831;28;20021;-52
2021/05/04 02:57:06;;;;;;;1.92;0.73;;;20.10;42.80;;;;;;5037067;28;20056;-54
2021/05/04 02:59:32;;;;;;;1.13;0.50;;;20.00;42.10;;;;;;5037541;28;20427;-56
2021/05/04 03:01:58;;;;;;;1.63;0.65;;;20.00;42.10;;;;;;5037234;28;20031;-51
2021/05/04 03:04:23;;;;;;;1.48;0.57;;;20.00;42.80;;;;;;5036752;28;20021;-52
2021/05/04 03:06:49;;;;;;;1.55;0.57;;;20.00;42.20;;;;;;5036571;28;20029;-54
2021/05/04 03:09:14;;;;;;;1.15;0.50;;;20.00;42.20;;;;;;5036962;28;20036;-51
2021/05/04 03:11:40;;;;;;;1.20;0.47;;;20.00;42.30;;;;;;5036598;28;20033;-56
2021/05/04 03:14:05;;;;;;;1.65;0.68;;;20.00;42.30;;;;;;5036988;28;20032;-53
2021/05/04 03:16:31;;;;;;;1.08;0.68;;;20.00;42.30;;;;;;5037218;28;20029;-51
2021/05/04 03:18:56;;;;;;;1.45;0.40;;;20.00;42.40;;;;;;5036288;28;20096;-55
2021/05/04 03:21:23;;;;;;;1.42;0.85;;;20.00;42.50;;;;;;5036227;28;20163;-55
2021/05/04 03:23:49;;;;;;;1.63;0.68;;;20.00;42.50;;;;;;5036675;28;20028;-55
2021/05/04 03:26:14;;;;;;;0.75;0.52;;;19.90;42.50;;;;;;5036624;28;20029;-50
2021/05/04 03:28:41;;;;;;;0.93;0.50;;;19.90;42.50;;;;;;5036772;28;20029;-54
2021/05/04 03:31:06;;;;;;;1.85;0.50;;;19.90;42.60;;;;;;5036468;28;20340;-55
2021/05/04 03:33:32;;;;;;;1.10;0.90;;;20.00;42.60;;;;;;5036616;28;20025;-56
2021/05/04 03:35:57;;;;;;;2.67;0.50;;;20.00;42.70;;;;;;5036207;28;20129;-54
2021/05/04 03:38:23;;;;;;;1.08;0.70;;;19.90;42.70;;;;;;5036613;28;20352;-54
2021/05/04 03:40:48;;;;;;;1.65;0.75;;;19.90;42.70;;;;;;5036294;28;20057;-53
2021/05/04 03:43:14;;;;;;;0.52;0.52;;;19.90;42.70;;;;;;5036078;28;20041;-54
2021/05/04 03:45:39;;;;;;;0.40;0.40;;;19.90;42.70;;;;;;5036499;28;20116;-54
2021/05/04 03:48:05;;;;;;;0.50;0.50;;;19.90;42.80;;;;;;5036409;28;20053;-56
2021/05/04 03:50:32;;;;;;;0.65;0.63;;;19.90;42.80;;;;;;5035983;28;20044;-52
2021/05/04 03:52:59;;;;;;;2.08;0.70;;;19.90;42.80;;;;;;5035346;28;20014;-55
2021/05/04 03:55:25;;;;;;;0.50;0.50;;;19.90;42.80;;;;;;5036017;28;20074;-54
2021/05/04 03:57:51;;;;;;;1.42;0.60;;;19.90;42.90;;;;;;5035692;28;20112;-52
2021/05/04 04:00:17;;;;;;;0.63;0.63;;;19.90;42.90;;;;;;5035898;28;20040;-51
2021/05/04 04:02:43;;;;;;;1.00;0.50;;;19.90;42.90;;;;;;5035845;28;20021;-50
2021/05/04 04:05:09;;;;;;;2.70;0.82;;;19.80;42.90;;;;;;5035901;28;20036;-56
2021/05/04 04:07:35;;;;;;;0.50;0.30;;;19.80;42.90;;;;;;5035804;28;20087;-56
2021/05/04 04:10:01;;;;;;;0.90;0.60;;;19.90;43.10;;;;;;5035929;28;20108;-54
2021/05/04 04:12:27;;;;;;;1.35;0.55;;;19.90;43.10;;;;;;5035737;28;20034;-56
2021/05/04 04:14:53;;;;;;;0.40;0.40;;;19.80;43.00;;;;;;5035364;28;20033;-56
2021/05/04 04:17:19;;;;;;;1.02;0.50;;;19.80;43.10;;;;;;5035415;28;20025;-53
2021/05/04 04:19:44;;;;;;;0.70;0.50;;;19.80;43.10;;;;;;5035502;28;20030;-57
2021/05/04 04:22:10;;;;;;;0.60;0.60;;;19.80;43.20;;;;;;5035400;28;20099;-53
2021/05/04 04:24:35;;;;;;;1.08;0.65;;;19.80;43.20;;;;;;5018108;28;20033;-55
2021/05/04 04:27:01;;;;;;;0.93;0.70;;;19.80;43.20;;;;;;5035147;28;20025;-57
2021/05/04 04:29:26;;;;;;;0.57;0.50;;;19.90;43.30;;;;;;5035010;28;20025;-54
2021/05/04 04:31:53;;;;;;;0.85;0.70;;;19.80;43.30;;;;;;5035412;28;20075;-56
2021/05/04 04:34:19;;;;;;;4.70;0.60;;;19.80;43.30;;;;;;5017450;28;20041;-53
2021/05/04 04:36:44;;;;;;;0.52;0.50;;;19.80;43.40;;;;;;5035382;28;20348;-51
2021/05/04 04:39:10;;;;;;;2.58;0.50;;;19.80;43.30;;;;;;5035260;28;20116;-55
2021/05/04 04:41:35;;;;;;;1.35;0.60;;;19.80;43.40;;;;;;5017969;28;20053;-54
2021/05/04 04:44:03;;;;;;;0.60;0.60;;;19.70;43.50;;;;;;5034964;28;20037;-53
2021/05/04 04:46:39;;;;;;;3.22;0.63;;;19.80;43.60;;;;;;5034813;28;20356;-56
2021/05/04 04:49:08;;;;;;;2.70;0.60;;;19.80;43.60;;;;;;5034840;28;20028;-57
2021/05/04 04:51:34;;;;;;;5.82;0.50;;;19.80;43.60;;;;;;5035031;28;20032;-51
2021/05/04 04:53:59;;;;;;;2.28;0.68;;;19.80;43.60;;;;;;5035077;28;20025;-48
2021/05/04 04:56:25;;;;;;;0.95;0.60;;;19.80;43.80;;;;;;5035339;28;20056;-52
2021/05/04 04:58:51;;;;;;;1.10;0.73;;;19.80;43.90;;;;;;5034944;28;20057;-54
2021/05/04 05:01:16;;;;;;;2.78;0.55;;;19.80;43.90;;;;;;5034993;28;20333;-52
2021/05/04 05:03:42;;;;;;;1.23;0.60;;;19.90;44.00;;;;;;5034769;28;20033;-52
2021/05/04 05:06:07;;;;;;;2.00;0.40;;;19.90;44.10;;;;;;5034532;28;20033;-52
2021/05/04 05:08:33;;;;;;;2.90;0.50;;;19.90;44.10;;;;;;5035060;28;20044;-55
2021/05/04 05:10:58;;;;;;;0.73;0.40;;;20.00;44.10;;;;;;5034246;28;20036;-56
2021/05/04 05:13:24;;;;;;;1.52;0.50;;;20.00;44.20;;;;;;5034354;28;20021;-53
2021/05/04 05:15:49;;;;;;;0.38;0.38;;;20.00;44.20;;;;;;5034573;28;20360;-50
2021/05/04 05:18:15;;;;;;;1.02;0.30;;;20.10;44.20;;;;;;5034667;28;20041;-50
2021/05/04 05:20:40;;;;;;;3.15;0.50;;;20.10;44.20;;;;;;5034558;28;20026;-52
2021/05/04 05:23:06;;;;;;;0.38;0.20;;;20.10;44.20;;;;;;5034238;28;20468;-48
2021/05/04 05:25:32;;;;;;;0.30;0.30;;;20.10;44.20;;;;;;5034427;28;20034;-51
2021/05/04 05:27:58;;;;;;;2.63;0.52;;;20.10;44.30;;;;;;5034904;28;20013;-53
2021/05/04 05:30:25;;;;;;;0.52;0.30;;;20.10;44.20;;;;;;5034563;28;20088;-51
2021/05/04 05:32:50;;;;;;;2.03;0.50;;;20.20;44.30;;;;;;5034718;28;20029;-48
2021/05/04 05:35:16;;;;;;;0.52;0.45;;;20.20;44.30;;;;;;5016604;28;20123;-53
2021/05/04 05:37:41;;;;;;;2.00;0.50;;;20.20;44.30;;;;;;5034967;28;20026;-51
2021/05/04 05:40:08;;;;;;;1.52;0.50;;;20.20;44.30;;;;;;5034415;28;20025;-52
2021/05/04 05:42:33;;;;;;;0.47;0.30;;;20.20;44.30;;;;;;5034669;28;20045;-54
2021/05/04 05:44:59;;;;;;;0.50;0.47;;;20.20;44.40;;;;;;5034676;28;20341;-52
2021/05/04 05:47:24;;;;;;;0.20;0.20;;;20.30;44.40;;;;;;5034500;28;20030;-56
2021/05/04 05:49:50;;;;;;;0.20;0.20;;;20.30;44.40;;;;;;5033908;28;20025;-52
2021/05/04 05:52:15;;;;;;;0.65;0.25;;;20.30;44.40;;;;;;5034440;28;20022;-52
2021/05/04 05:54:41;;;;;;;1.00;0.47;;;20.30;44.40;;;;;;5034324;28;20031;-48
2021/05/04 05:57:06;;;;;;;0.20;0.20;;;20.30;44.40;;;;;;5034366;28;20377;-54
2021/05/04 05:59:32;;;;;;;1.00;0.30;;;20.30;44.40;;;;;;5034429;28;20032;-60
2021/05/04 06:01:58;;;;;;;1.25;0.80;;;20.30;44.50;;;;;;5034001;28;20033;-51
2021/05/04 06:04:23;;;;;;;0.65;0.43;;;20.30;44.90;;;;;;5033799;28;20105;-53
2021/05/04 06:06:49;;;;;;;2.63;0.52;;;20.30;44.80;;;;;;5034233;28;20100;-56
2021/05/04 06:09:14;;;;;;;1.65;0.47;;;20.30;44.70;;;;;;5034332;28;20108;-51
2021/05/04 06:11:40;;;;;;;1.27;0.43;;;20.40;44.80;;;;;;5033991;28;20415;-56
2021/05/04 06:14:05;;;;;;;1.15;0.40;;;20.30;44.70;;;;;;5034649;28;20440;-49
2021/05/04 06:16:31;;;;;;;0.88;0.40;;;20.40;44.70;;;;;;5018123;28;20428;-49
2021/05/04 06:18:56;;;;;;;2.08;0.28;;;20.30;44.70;;;;;;5037528;28;20127;-52
2021/05/04 06:21:22;;;;;;;3.13;0.60;;;20.40;44.80;;;;;;5037805;28;20036;-52
2021/05/04 06:23:48;;;;;;;0.40;0.30;;;20.40;44.80;;;;;;5037568;28;20433;-51
2021/05/04 06:26:13;;;;;;;0.57;0.40;;;20.50;44.80;;;;;;5037711;28;20120;-52
2021/05/04 06:28:45;;;;;;;3.80;0.50;;;20.40;44.80;;;;;;5037668;28;20033;-50
2021/05/04 06:31:12;;;;;;;1.65;0.60;;;20.40;44.70;;;;;;5037522;28;20031;-47
2021/05/04 06:33:38;;;;;;;1.40;0.43;;;20.40;44.80;;;;;;5037301;28;20515;-49
2021/05/04 06:36:04;;;;;;;0.93;0.43;;;20.40;44.80;;;;;;5036562;28;20116;-50
2021/05/04 06:38:30;;;;;;;0.55;0.40;;;20.40;44.80;;;;;;5037342;28;20049;-48
2021/05/04 06:40:55;;;;;;;0.88;0.30;;;20.50;44.80;;;;;;5035889;28;20052;-50
2021/05/04 06:43:22;;;;;;;0.30;0.30;;;20.50;44.80;;;;;;5036908;28;20103;-51
2021/05/04 06:45:48;;;;;;;0.73;0.30;;;20.50;44.80;;;;;;5037145;28;20032;-49
2021/05/04 06:48:13;;;;;;;0.80;0.35;;;20.50;44.80;;;;;;5036736;28;20112;-52
2021/05/04 06:50:39;;;;;;;0.65;0.32;;;20.50;44.80;;;;;;5037600;28;20044;-50
2021/05/04 06:53:05;;;;;;;1.98;0.30;;;20.50;44.80;;;;;;5037540;28;20100;-52
2021/05/04 06:55:31;;;;;;;1.50;0.55;;;20.50;45.00;;;;;;5037120;28;20023;-54
2021/05/04 06:57:57;;;;;;;1.95;0.68;;;20.60;45.10;;;;;;5037263;28;20095;-49
2021/05/04 07:00:22;;;;;;;0.73;0.30;;;20.60;45.00;;;;;;5037447;28;20026;-53
2021/05/04 07:02:48;;;;;;;0.68;0.25;;;20.60;45.00;;;;;;5036406;28;20034;-53
2021/05/04 07:05:14;;;;;;;4.18;0.80;;;20.60;45.00;;;;;;5037343;28;20121;-51
2021/05/04 07:07:39;;;;;;;2.58;0.60;;;20.60;45.00;;;;;;5036997;28;20032;-52
2021/05/04 07:10:05;;;;;;;2.83;0.45;;;20.60;45.00;;;;;;5036338;28;20030;-52
2021/05/04 07:12:31;;;;;;;0.82;0.35;;;20.70;45.10;;;;;;5036257;28;20441;-51
2021/05/04 07:14:57;;;;;;;1.77;0.45;;;20.70;45.10;;;;;;5036081;28;20036;-57
2021/05/04 07:17:23;;;;;;;0.65;0.30;;;20.70;45.30;;;;;;5036831;28;20033;-53
2021/05/04 07:19:50;;;;;;;1.63;0.65;;;20.70;45.40;;;;;;5037277;28;20061;-54
2021/05/04 07:22:15;;;;;;;1.52;0.50;;;20.70;45.30;;;;;;5036787;28;20022;-50
2021/05/04 07:24:41;;;;;;;1.30;0.30;;;20.70;45.20;;;;;;5037051;28;20029;-56
2021/05/04 07:27:07;;;;;;;3.70;0.77;;;20.70;45.20;;;;;;5036211;28;20036;-52
2021/05/04 07:29:34;;;;;;;6.30;0.85;;;20.70;45.20;;;;;;5035605;28;20121;-51
2021/05/04 07:32:00;;;;;;;2.05;0.50;;;20.80;45.20;;;;;;5036600;28;20056;-50
2021/05/04 07:34:25;;;;;;;5.63;0.65;;;20.80;45.20;;;;;;5036513;28;20480;-49
2021/05/04 07:36:51;;;;;;;5.38;0.75;;;20.80;45.20;;;;;;5036127;28;20072;-54
2021/05/04 07:39:17;;;;;;;2.50;0.40;;;20.80;45.20;;;;;;5036445;28;20033;-49
2021/05/04 07:41:42;;;;;;;1.50;0.30;;;20.80;45.20;;;;;;5036330;28;20029;-55
2021/05/04 07:44:08;;;;;;;1.25;0.40;;;20.80;45.20;;;;;;5036331;28;20033;-49
2021/05/04 07:46:34;;;;;;;3.22;0.57;;;20.80;45.20;;;;;;5035979;28;20040;-51
2021/05/04 07:48:59;;;;;;;0.68;0.30;;;20.80;45.20;;;;;;5036520;28;20078;-50
2021/05/04 07:51:25;;;;;;;7.18;0.80;;;20.90;45.20;;;;;;5036143;28;20345;-49
2021/05/04 07:53:51;;;;;;;11.38;1.20;;;20.80;45.30;;;;;;5036183;28;20041;-61
2021/05/04 07:56:16;;;;;;;3.72;0.80;;;20.90;45.50;;;;;;5035542;28;20037;-52
2021/05/04 07:58:42;;;;;;;3.22;0.85;;;20.80;45.50;;;;;;5036415;28;20463;-50
2021/05/04 08:01:07;;;;;;;4.68;0.60;;;20.80;45.40;;;;;;5035914;28;20037;-52
2021/05/04 08:03:34;;;;;;;1.45;0.60;;;20.80;45.40;;;;;;5035952;28;20091;-54
2021/05/04 08:06:00;;;;;;;4.25;0.75;;;20.90;45.40;;;;;;5035853;28;20025;-53
2021/05/04 08:08:26;;;;;;;3.45;0.68;;;20.90;45.40;;;;;;5035704;28;20037;-56
2021/05/04 08:10:51;;;;;;;3.20;0.85;;;20.90;45.40;;;;;;5035780;28;20022;-56
2021/05/04 08:13:20;;;;;;;3.50;0.90;;;20.90;45.40;;;;;;5035337;28;20021;-49
2021/05/04 08:15:48;;;;;;;2.35;0.90;;;20.90;45.40;;;;;;5035705;28;20087;-50
2021/05/04 08:18:15;;;;;;;1.45;0.65;;;20.90;45.40;;;;;;5035618;28;20106;-54
2021/05/04 08:20:55;;;;;;;4.78;0.95;;;20.90;45.40;;;;;;5035816;28;20079;-54
2021/05/04 08:23:25;;;;;;;2.20;0.90;;;20.90;45.40;;;;;;5035531;28;20076;-53
2021/05/04 08:25:52;;;;;;;1.27;0.70;;;20.90;45.40;;;;;;5035467;28;20337;-52
2021/05/04 08:28:17;;;;;;;1.73;0.65;;;20.90;45.40;;;;;;5018010;28;20075;-49
2021/05/04 08:30:43;;;;;;;2.17;0.77;;;21.00;45.50;;;;;;5035479;28;20037;-49
2021/05/04 08:33:08;;;;;;;4.05;0.85;;;20.90;45.40;;;;;;5017684;28;20167;-56
2021/05/04 08:35:34;;;;;;;4.45;0.75;;;21.00;45.50;;;;;;5035097;28;20042;-50
2021/05/04 08:38:00;;;;;;;3.38;0.82;;;21.00;45.60;;;;;;5035460;28;20036;-50
2021/05/04 08:40:26;;;;;;;1.35;0.57;;;21.00;45.50;;;;;;5035029;28;20025;-54
2021/05/04 08:42:52;;;;;;;2.30;0.52;;;21.00;45.50;;;;;;5035380;28;20126;-51
2021/05/04 08:45:18;;;;;;;1.55;0.70;;;21.10;45.50;;;;;;5035139;28;20025;-55
2021/05/04 08:47:45;;;;;;;3.22;0.75;;;21.10;45.50;;;;;;5035149;28;20168;-52
2021/05/04 08:50:14;;;;;;;1.92;0.82;;;21.10;45.50;;;;;;5034928;28;20105;-53
2021/05/04 08:52:39;;;;;;;1.88;0.57;;;21.10;45.50;;;;;;5035019;28;20025;-54
2021/05/04 08:55:06;;;;;;;1.20;0.70;;;21.10;45.60;;;;;;5034810;28;20021;-57
2021/05/04 08:57:32;;;;;;;2.42;0.80;;;21.10;45.60;;;;;;5035221;28;20061;-52
2021/05/04 08:59:58;;;;;;;2.75;0.60;;;21.20;45.60;;;;;;5034744;28;20032;-51
2021/05/04 09:02:24;;;;;;;2.17;0.50;;;21.10;45.60;;;;;;5034809;28;20041;-53
2021/05/04 09:04:53;;;;;;;7.05;0.93;;;21.20;45.60;;;;;;5034595;28;20014;-54
2021/05/04 09:07:30;;;;;;;1.80;0.50;;;21.20;45.60;;;;;;5034586;28;20087;-51
2021/05/04 09:10:16;;;;;;;2.13;0.55;;;21.10;45.50;;;;;;5034544;28;20076;-55
2021/05/04 09:12:52;;;;;;;6.55;0.73;;;21.10;46.20;;;;;;5035104;28;20429;-54
2021/05/04 09:16:12;;;;;;;3.97;0.90;;;21.10;45.50;;;;;;5034841;28;20022;-56
2021/05/04 09:18:52;;;;;;;2.30;1.00;;;21.10;45.50;;;;;;5033754;28;20508;-52
2021/05/04 09:21:31;;;;;;;1.83;0.52;;;21.10;45.50;;;;;;5034727;28;20033;-53
2021/05/04 09:23:57;;;;;;;1.77;0.60;;;21.10;45.50;;;;;;5034929;28;20171;-54
2021/05/04 09:26:31;;;;;;;1.05;0.38;;;21.20;45.60;;;;;;5034446;28;20108;-55
2021/05/04 09:28:58;;;;;;;1.13;0.45;;;21.20;45.50;;;;;;5034457;28;20344;-51
2021/05/04 09:31:28;;;;;;;1.33;0.60;;;21.20;45.50;;;;;;5034233;28;20017;-53
2021/05/04 09:33:55;;;;;;;1.77;0.75;;;21.30;45.50;;;;;;5034842;28;20159;-54
2021/05/04 09:36:37;;;;;;;2.35;0.82;;;21.30;45.60;;;;;;5034603;28;20104;-55
2021/05/04 09:39:03;;;;;;;5.05;1.15;;;21.30;45.60;;;;;;5034681;28;20101;-54
2021/05/04 09:41:29;;;;;;;4.05;1.10;;;21.30;45.60;;;;;;5034461;28;20022;-57
2021/05/04 09:43:55;;;;;;;2.33;0.73;;;21.30;45.50;;;;;;5034488;28;20464;-55
2021/05/04 09:46:43;;;;;;;2.38;0.60;;;21.30;45.50;;;;;;5034379;28;20108;-57
2021/05/04 09:49:32;;;;;;;3.13;1.00;;;21.40;45.50;;;;;;5034665;28;20024;-53
2021/05/04 09:52:23;;;;;;;1.25;0.65;;;21.40;45.50;;;;;;5036097;28;20033;-57
2021/05/04 09:54:48;;;;;;;1.92;0.80;;;21.40;45.50;;;;;;5038201;28;20159;-51
2021/05/04 09:57:53;;;;;;;0.85;0.52;;;21.40;45.60;;;;;;5038222;28;20049;-49
2021/05/04 10:00:28;;;;;;;0.85;0.50;;;21.40;45.70;;;;;;5038260;28;20021;-54
2021/05/04 10:02:56;;;;;;;1.88;0.57;;;21.40;45.70;;;;;;5038062;28;20067;-48
2021/05/04 10:05:22;;;;;;;0.95;0.60;;;21.40;45.80;;;;;;5038147;28;20018;-48
2021/05/04 10:07:48;;;;;;;4.65;1.00;;;21.40;46.00;;;;;;5038459;28;20029;-51
2021/05/04 10:10:15;;;;;;;1.92;0.63;;;21.40;46.00;;;;;;5037736;28;20036;-54
2021/05/04 10:12:43;;;;;;;1.73;0.80;;;21.40;46.10;;;;;;5038117;28;20116;-55
2021/05/04 10:15:11;;;;;;;1.08;0.60;;;21.40;46.10;;;;;;5038292;28;20032;-54
2021/05/04 10:17:38;;;;;;;1.80;0.60;;;21.40;46.10;;;;;;5037421;28;20380;-56
2021/05/04 10:20:07;;;;;;;3.67;0.50;;;21.40;46.10;;;;;;5037883;28;20026;-51
2021/05/04 10:22:35;;;;;;;2.25;0.95;;;21.40;46.10;;;;;;5037350;28;20052;-49
2021/05/04 10:25:01;;;;;;;1.33;0.75;;;21.40;46.10;;;;;;5036966;28;20407;-53
2021/05/04 10:27:28;;;;;;;1.67;1.00;;;21.40;46.10;;;;;;5037563;28;20025;-53
2021/05/04 10:29:54;;;;;;;1.30;0.73;;;21.40;46.10;;;;;;5037458;28;20442;-53
2021/05/04 10:32:54;;;;;;;3.28;0.70;;;21.40;46.10;;;;;;5037925;28;20022;-52
2021/05/04 10:35:29;;;;;;;1.10;0.60;;;21.40;46.10;;;;;;5037138;28;20139;-51
2021/05/04 10:38:06;;;;;;;1.60;0.90;;;21.40;46.00;;;;;;5037558;28;20025;-51
2021/05/04 10:40:34;;;;;;;1.45;0.68;;;21.40;46.00;;;;;;5037523;28;20455;-49
2021/05/04 10:43:22;;;;;;;1.17;0.60;;;21.40;46.10;;;;;;5037478;28;20350;-53
2021/05/04 10:45:50;;;;;;;2.28;0.90;;;21.40;45.90;;;;;;5036468;28;20029;-58
2021/05/04 10:48:16;;;;;;;6.60;0.88;;;21.40;45.90;;;;;;5037135;28;20428;-57
2021/05/04 10:50:54;;;;;;;3.63;0.90;;;21.40;45.90;;;;;;5037341;28;20025;-56
2021/05/04 10:53:21;;;;;;;6.50;0.88;;;21.40;45.90;;;;;;5037186;28;20079;-59
2021/05/04 10:55:53;;;;;;;3.80;1.13;;;21.40;45.90;;;;;;5037430;28;20039;-56
2021/05/04 10:58:20;;;;;;;11.57;1.40;;;21.40;46.00;;;;;;5037108;28;20425;-58
2021/05/04 11:00:52;;;;;;;4.75;0.65;;;21.40;46.10;;;;;;5037299;28;20052;-59
2021/05/04 11:03:54;;;;;;;2.65;0.82;;;21.40;46.10;;;;;;5036533;28;20520;-60
2021/05/04 11:06:22;;;;;;;3.25;1.27;;;21.40;46.30;;;;;;5017616;28;20110;-59
2021/05/04 11:08:50;;;;;;;3.35;0.57;;;21.40;46.30;;;;;;5037067;28;20037;-58
2021/05/04 11:11:26;;;;;;;4.32;0.90;;;21.40;46.20;;;;;;5036982;28;20072;-56
2021/05/04 11:13:59;;;;;;;8.90;1.00;;;21.40;46.20;;;;;;5037102;28;20084;-59
2021/05/04 11:16:31;;;;;;;;;;;21.40;46.30;;;;;;5036923;28;20029;-59
2021/05/04 11:19:05;;;;;;;4.85;0.88;;;21.40;46.40;;;;;;5036804;28;19912;-56
2021/05/04 11:22:10;;;;;;;6.22;1.02;;;21.40;46.50;;;;;;5036729;28;20036;-59
2021/05/04 11:24:36;;;;;;;7.57;0.90;;;21.40;46.50;;;;;;5006386;28;20038;-59
2021/05/04 11:27:18;;;;;;;2.80;0.75;;;21.40;46.50;;;;;;5036404;28;20130;-60
2021/05/04 11:29:46;;;;;;;3.47;1.35;;;21.40;46.50;;;;;;5036682;28;20072;-58
2021/05/04 11:32:15;;;;;;;3.63;0.80;;;21.40;46.50;;;;;;5036656;28;20356;-57
2021/05/04 11:34:43;;;;;;;4.70;1.00;;;21.40;46.60;;;;;;5036451;28;20554;-59
2021/05/04 11:37:22;;;;;;;13.07;1.25;;;21.50;46.70;;;;;;5036568;28;20022;-60
2021/05/04 11:39:55;;;;;;;5.47;0.60;;;21.50;46.60;;;;;;5035876;28;20032;-60
2021/05/04 11:42:41;;;;;;;3.30;1.00;;;21.50;46.70;;;;;;5036162;28;20041;-56
2021/05/04 11:45:29;;;;;;;7.03;0.90;;;21.50;46.70;;;;;;5035980;28;20545;-59
2021/05/04 11:47:57;;;;;;;5.80;0.70;;;21.50;46.70;;;;;;5036187;28;20032;-56
2021/05/04 11:50:30;;;;;;;5.25;0.60;;;21.50;46.70;;;;;;5035937;28;20104;-59
2021/05/04 11:52:58;;;;;;;;;;;21.50;46.80;;;;;;5036507;28;20018;-60
2021/05/04 11:55:31;;;;;;;2.25;0.60;;;21.50;46.60;;;;;;5035990;28;20062;-59
2021/05/04 11:58:05;;;;;;;5.00;1.20;;;21.50;46.50;;;;;;5036185;28;20017;-62
2021/05/04 12:00:33;;;;;;;2.53;0.63;;;21.50;46.40;;;;;;5035655;28;20032;-51
2021/05/04 12:03:07;;;;;;;6.80;0.73;;;21.50;46.40;;;;;;5035405;28;20045;-52
2021/05/04 12:05:33;;;;;;;3.05;0.88;;;21.50;46.30;;;;;;5035811;28;20022;-53
2021/05/04 12:08:00;;;;;;;2.70;0.80;;;21.50;46.10;;;;;;5035938;28;20029;-55
2021/05/04 12:10:31;;;;;;;2.10;0.60;;;21.50;45.90;;;;;;5035790;28;20026;-57
2021/05/04 12:13:08;;;;;;;4.47;0.60;;;21.50;45.80;;;;;;5035722;28;20113;-52
2021/05/04 12:15:42;;;;;;;2.38;0.90;;;21.50;45.80;;;;;;5035155;28;20116;-55
2021/05/04 12:18:17;;;;;;;4.90;0.93;;;21.50;45.70;;;;;;5035521;28;20048;-56
2021/05/04 12:20:57;;;;;;;2.22;0.68;;;21.50;45.70;;;;;;5035753;28;20053;-55
2021/05/04 12:23:36;;;;;;;7.80;1.10;;;21.50;45.60;;;;;;5035640;28;20410;-56
2021/05/04 12:26:07;;;;;;;7.38;0.98;;;21.50;45.20;;;;;;5035558;28;20037;-61
2021/05/04 12:28:38;;;;;;;13.10;1.02;;;21.50;45.30;;;;;;5035984;28;20397;-55
2021/05/04 12:31:06;;;;;;;7.22;0.70;;;21.50;45.50;;;;;;5035520;28;20031;-56
2021/05/04 12:33:33;;;;;;;5.43;0.70;;;21.40;45.40;;;;;;5035160;28;20028;-55
2021/05/04 12:36:05;;;;;;;4.43;0.55;;;21.40;45.40;;;;;;5034885;28;20095;-54
2021/05/04 12:39:03;;;;;;;8.93;0.60;;;21.40;45.40;;;;;;5035541;28;20025;-52
2021/05/04 12:41:34;;;;;;;6.28;0.90;;;21.40;45.50;;;;;;5034409;28;20456;-55
2021/05/04 12:44:25;;;;;;;4.70;0.63;;;21.40;45.50;;;;;;5035137;28;20040;-58
2021/05/04 12:46:53;;;;;;;1.70;0.57;;;21.50;45.50;;;;;;5035082;28;20013;-55
2021/05/04 12:49:19;;;;;;;2.05;0.52;;;21.40;45.50;;;;;;5035174;28;20021;-57
2021/05/04 12:51:47;;;;;;;5.75;0.55;;;21.50;45.50;;;;;;5035063;28;20029;-56
2021/05/04 12:54:19;;;;;;;3.20;0.52;;;21.40;45.40;;;;;;5034863;28;20445;-52